Página principal
METAR-TAF:

METAR-TAF

Aeroportos :

Moscovo-Sheremetyevo, Rússia

Aeroporto Moscovo Sheremetievo

latitude: 55-59N, longitude: 037-30E, altura: 190 m

Observação actual do tempo

O boletim foi feito há 21 minutos, às 23:30 UTC
Vento 4 kt de su-sudoeste
Temperatura 20°C
Humidade 68%
Pressão 1022 hPa
Visibilidade 10 km ou mais
sem nuvens abaixo de 1500 metros e sem cumulonimbus

METAR: UUEE 182330Z 20002MPS CAVOK 20/14 Q1022 R06R/CLRD62 NOSIG

Hora: 02:51 (23:51 UTC)

Previsão

O boletim foi feito há 51 minutos, às 23:00 UTC
Previsão válida de 19 às 00 UTC a 19 às 24 UTC
Vento 10 kt de sul
Visibilidade 10 km ou mais
sem nuvens abaixo de 1500 metros e sem cumulonimbus

TAF: UUEE 182300Z 1900/1924 18005MPS CAVOK TX29/1912Z TN16/1903Z

Observações e previsões do tempo de mais de 4000 aeroportos (mensagens METAR e TAF).

As estações disponíveis são os pontos amarelos e vermelhos sobre o mapa.

Mova o rato sobre o mapa para ver o nome da estação.

Depois clique no ponto para visualizar as observações e previsões meteorológicas.

Para alterar o mapa : clique nos botões verdes com uma cruz preta para aumentar o zoom; no botão verde com uma pitada de zoom; ou nas setas verdes para mapas adjacentes.


METAR-TAF: